createdAt,value
2022-09-26T00:00:00.904Z,90.66
2022-09-26T00:05:02.518Z,91.74
2022-09-26T00:10:04.608Z,91.23
2022-09-26T00:15:06.952Z,91.76
2022-09-26T00:20:09.088Z,91.85
2022-09-26T00:25:10.715Z,92.72
2022-09-26T00:30:12.391Z,92.30
2022-09-26T00:35:13.925Z,91.88
2022-09-26T00:40:16.339Z,92.73
2022-09-26T00:45:17.980Z,94.09
2022-09-26T00:50:26.754Z,94.78
2022-09-26T00:55:35.077Z,94.98
2022-09-26T01:00:42.241Z,95.18
2022-09-26T01:05:45.592Z,94.10
2022-09-26T01:10:47.318Z,96.19
2022-09-26T01:15:49.238Z,98.24
2022-09-26T01:21:44.949Z,97.86
2022-09-26T01:27:08.417Z,98.38
2022-09-26T01:32:48.105Z,100.00
2022-09-26T01:38:13.257Z,100.00
2022-09-26T01:43:56.663Z,100.00
2022-09-26T01:49:10.985Z,100.00
2022-09-26T01:54:21.739Z,100.00
2022-09-26T01:59:38.482Z,100.00
2022-09-26T02:04:45.772Z,100.00
2022-09-26T02:09:59.262Z,100.00
2022-09-26T02:15:04.907Z,100.00
2022-09-26T02:20:24.714Z,100.00
2022-09-26T02:25:28.453Z,100.00
2022-09-26T02:30:30.526Z,100.00
2022-09-26T02:35:52.280Z,100.00
2022-09-26T02:41:04.831Z,100.00
2022-09-26T02:46:39.648Z,100.00
2022-09-26T02:52:00.029Z,100.00
2022-09-26T02:57:24.889Z,100.00
2022-09-26T03:02:34.003Z,100.00
2022-09-26T03:08:11.611Z,100.00
2022-09-26T03:13:16.861Z,100.00
2022-09-26T03:18:22.775Z,100.00
2022-09-26T03:23:26.123Z,100.00
2022-09-26T03:28:37.577Z,100.00
2022-09-26T03:33:40.507Z,100.00
2022-09-26T03:38:42.523Z,100.00
2022-09-26T03:43:58.842Z,100.00
2022-09-26T03:49:12.160Z,100.00
2022-09-26T03:54:14.345Z,100.00
2022-09-26T03:59:16.313Z,100.00
2022-09-26T04:04:19.163Z,100.00
2022-09-26T04:09:21.561Z,100.00
2022-09-26T04:14:26.468Z,100.00
2022-09-26T04:19:31.737Z,100.00
2022-09-26T04:24:34.607Z,100.00
2022-09-26T04:29:36.341Z,100.00
2022-09-26T04:34:44.406Z,100.00
2022-09-26T04:39:46.217Z,100.00
2022-09-26T04:44:48.279Z,100.00
2022-09-26T04:49:51.607Z,100.00
2022-09-26T04:54:53.223Z,100.00
2022-09-26T04:59:54.871Z,100.00
2022-09-26T05:04:59.745Z,100.00
2022-09-26T05:10:04.172Z,100.00
2022-09-26T05:15:14.970Z,100.00
2022-09-26T05:26:04.047Z,100.00
2022-09-26T05:31:17.769Z,100.00
2022-09-26T05:36:23.492Z,100.00
2022-09-26T05:41:39.539Z,100.00
2022-09-26T05:46:43.603Z,100.00
2022-09-26T05:51:47.138Z,100.00
2022-09-26T05:57:12.976Z,100.00
2022-09-26T06:03:19.969Z,100.00
2022-09-26T06:08:38.599Z,100.00
2022-09-26T06:14:00.586Z,100.00
2022-09-26T06:19:02.666Z,100.00
2022-09-26T06:24:04.718Z,100.00
2022-09-26T06:29:12.094Z,100.00
2022-09-26T06:34:17.232Z,100.00
2022-09-26T06:39:41.407Z,100.00
2022-09-26T06:51:08.387Z,100.00
2022-09-26T06:56:12.260Z,100.00
2022-09-26T07:08:17.141Z,100.00
2022-09-26T07:13:23.125Z,100.00
2022-09-26T07:30:05.542Z,100.00
2022-09-26T07:41:03.528Z,100.00
2022-09-26T07:46:25.033Z,100.00
2022-09-26T07:51:31.408Z,100.00
2022-09-26T07:56:35.192Z,100.00
2022-09-26T08:01:54.884Z,97.86
2022-09-26T08:07:09.846Z,95.90
2022-09-26T08:12:18.150Z,97.67
2022-09-26T08:17:24.119Z,96.37
2022-09-26T08:22:27.078Z,92.10
2022-09-26T08:27:32.558Z,96.72
2022-09-26T08:32:34.903Z,91.26
2022-09-26T08:37:36.694Z,97.47
2022-09-26T08:43:20.737Z,96.40
2022-09-26T08:49:29.201Z,87.65
2022-09-26T08:54:44.137Z,83.59
2022-09-26T08:59:47.372Z,75.82
2022-09-26T09:05:06.176Z,77.43
2022-09-26T09:10:18.033Z,75.01
2022-09-26T09:15:52.652Z,65.15
2022-09-26T09:22:03.731Z,61.95
2022-09-26T09:27:53.373Z,64.30
2022-09-26T09:33:13.505Z,59.07
2022-09-26T09:38:31.286Z,60.78
2022-09-26T09:43:48.601Z,56.46
2022-09-26T09:48:56.175Z,58.64
2022-09-26T09:54:24.199Z,54.62
2022-09-26T09:59:44.939Z,51.83
2022-09-26T10:04:56.550Z,47.26
2022-09-26T10:09:58.605Z,48.33
2022-09-26T10:15:26.197Z,50.41
2022-09-26T10:20:55.370Z,49.21
2022-09-26T10:26:03.611Z,49.30
2022-09-26T10:31:10.419Z,46.56
2022-09-26T10:36:33.962Z,48.18
2022-09-26T10:41:41.728Z,45.87
2022-09-26T10:46:46.475Z,45.33
2022-09-26T10:52:18.900Z,43.00
2022-09-26T10:57:28.240Z,43.59
2022-09-26T11:02:31.264Z,40.24
2022-09-26T11:07:39.576Z,41.52
2022-09-26T11:13:20.958Z,42.03
2022-09-26T11:18:41.916Z,42.12
2022-09-26T11:23:50.832Z,46.11
2022-09-26T11:29:03.911Z,41.20
2022-09-26T11:34:31.496Z,42.72
2022-09-26T11:40:31.733Z,39.48
2022-09-26T11:45:59.913Z,40.46
2022-09-26T11:52:13.080Z,44.66
2022-09-26T11:57:42.455Z,43.84
2022-09-26T12:02:54.402Z,44.42
2022-09-26T12:08:07.804Z,44.84
2022-09-26T12:13:22.473Z,44.86
2022-09-26T12:18:46.380Z,44.30
2022-09-26T12:23:57.265Z,45.57
2022-09-26T12:29:40.630Z,47.43
2022-09-26T12:35:07.188Z,46.39
2022-09-26T12:40:48.580Z,44.08
2022-09-26T12:45:57.112Z,42.97
2022-09-26T12:51:04.533Z,41.44
2022-09-26T12:56:12.459Z,40.80
2022-09-26T13:01:13.985Z,41.69
2022-09-26T13:07:02.394Z,42.41
2022-09-26T13:12:16.767Z,43.30
2022-09-26T13:17:37.369Z,40.55
2022-09-26T13:22:48.105Z,41.00
2022-09-26T13:28:05.057Z,39.24
2022-09-26T13:33:18.449Z,39.78
2022-09-26T13:38:39.165Z,39.33
2022-09-26T13:44:12.942Z,41.08
2022-09-26T13:49:25.038Z,39.57
2022-09-26T13:54:44.082Z,40.99
2022-09-26T13:59:54.151Z,40.05
2022-09-26T14:05:18.484Z,41.81
2022-09-26T14:10:32.291Z,41.78
2022-09-26T14:15:48.599Z,39.57
2022-09-26T14:20:56.546Z,41.39
2022-09-26T14:26:06.099Z,40.80
2022-09-26T14:31:33.555Z,40.99
2022-09-26T14:36:35.475Z,40.18
2022-09-26T14:41:41.938Z,40.70
2022-09-26T14:46:43.950Z,41.53
2022-09-26T14:51:48.868Z,43.31
2022-09-26T14:57:00.882Z,42.81
2022-09-26T15:02:15.236Z,42.95
2022-09-26T15:07:26.171Z,42.52
2022-09-26T15:12:39.966Z,43.48
2022-09-26T15:17:48.713Z,44.29
2022-09-26T15:22:52.779Z,44.63
2022-09-26T15:27:56.031Z,43.42
2022-09-26T15:32:58.693Z,45.28
2022-09-26T15:38:10.359Z,45.43
2022-09-26T15:43:22.870Z,46.74
2022-09-26T15:48:34.374Z,47.35
2022-09-26T15:53:47.359Z,49.00
2022-09-26T15:59:21.326Z,48.65
2022-09-26T16:04:28.833Z,49.71
2022-09-26T16:09:35.621Z,51.89
2022-09-26T16:15:00.116Z,52.42
2022-09-26T16:20:11.721Z,52.61
2022-09-26T16:25:19.373Z,53.44
2022-09-26T16:30:20.996Z,54.34
2022-09-26T16:35:29.476Z,54.10
2022-09-26T16:40:34.384Z,53.70
2022-09-26T16:45:36.582Z,53.81
2022-09-26T16:50:39.326Z,53.93
2022-09-26T16:55:40.905Z,55.04
2022-09-26T17:01:01.180Z,56.25
2022-09-26T17:06:03.315Z,55.78
2022-09-26T17:11:14.266Z,56.06
2022-09-26T17:16:16.439Z,57.57
2022-09-26T17:21:18.110Z,57.34
2022-09-26T17:26:23.747Z,58.64
2022-09-26T17:31:26.931Z,59.38
2022-09-26T17:36:29.740Z,59.97
2022-09-26T17:41:34.367Z,60.67
2022-09-26T17:46:39.426Z,62.23
2022-09-26T17:51:42.291Z,62.09
2022-09-26T17:56:43.864Z,63.00
2022-09-26T18:01:50.114Z,63.78
2022-09-26T18:06:51.772Z,63.57
2022-09-26T18:11:59.644Z,63.67
2022-09-26T18:17:02.089Z,63.52
2022-09-26T18:22:03.807Z,63.93
2022-09-26T18:27:07.268Z,64.42
2022-09-26T18:32:25.573Z,64.24
2022-09-26T18:37:27.109Z,64.12
2022-09-26T18:42:28.694Z,64.86
2022-09-26T18:47:35.543Z,64.19
2022-09-26T18:52:37.168Z,64.08
2022-09-26T18:57:57.314Z,64.38
2022-09-26T19:02:58.952Z,64.91
2022-09-26T19:08:01.378Z,65.77
2022-09-26T19:13:03.816Z,66.48
2022-09-26T19:18:05.608Z,67.13
2022-09-26T19:23:10.535Z,67.97
2022-09-26T19:28:23.054Z,67.90
2022-09-26T19:33:24.807Z,67.80
2022-09-26T19:38:27.124Z,69.22
